Time;durP1;ratioP1;P1;durP2;ratioP2;P2;SDS_P1;SDS_P2;PMS_P1;PMS_P2;Temp;Humidity;BMP_temperature;BMP_pressure;BME280_temperature;BME280_humidity;BME280_pressure;Samples;Min_cycle;Max_cycle;Signal;HPM_P1;HPM_P2
2023/08/13 00:02:19;;;;;;;1.92;1.60;;;21.60;59.80;;;;;;5026796;28;20068;-63
2023/08/13 00:04:47;;;;;;;3.30;1.92;;;21.60;59.80;;;;;;5027059;28;20064;-63
2023/08/13 00:07:14;;;;;;;3.83;1.70;;;21.60;59.90;;;;;;5025620;28;20049;-63
2023/08/13 00:09:43;;;;;;;4.22;1.40;;;21.60;59.90;;;;;;5026821;28;20046;-63
2023/08/13 00:12:10;;;;;;;3.35;1.63;;;21.60;60.00;;;;;;5025724;28;20053;-63
2023/08/13 00:14:37;;;;;;;2.78;1.60;;;21.70;60.00;;;;;;5027713;28;20421;-63
2023/08/13 00:17:05;;;;;;;3.13;1.63;;;21.60;60.00;;;;;;5027052;28;20072;-63
2023/08/13 00:19:32;;;;;;;1.45;1.17;;;21.60;60.00;;;;;;5026187;28;20049;-63
2023/08/13 00:21:59;;;;;;;5.18;1.70;;;21.60;60.10;;;;;;5025665;28;20049;-63
2023/08/13 00:24:26;;;;;;;1.83;1.40;;;21.60;60.10;;;;;;5025108;28;20062;-63
2023/08/13 00:26:55;;;;;;;2.58;1.40;;;21.60;60.10;;;;;;5025517;28;20528;-63
2023/08/13 00:29:22;;;;;;;3.03;1.73;;;21.60;60.20;;;;;;5025860;28;20057;-62
2023/08/13 00:31:49;;;;;;;2.13;1.40;;;21.60;60.20;;;;;;5024916;28;20051;-61
2023/08/13 00:34:17;;;;;;;3.03;1.40;;;21.60;60.30;;;;;;5026345;28;20052;-61
2023/08/13 00:36:44;;;;;;;2.45;1.40;;;21.60;60.40;;;;;;5024556;28;20083;-61
2023/08/13 00:39:11;;;;;;;3.50;1.85;;;21.60;60.50;;;;;;5025838;28;20057;-61
2023/08/13 00:41:38;;;;;;;3.20;1.35;;;21.60;60.60;;;;;;5024830;28;20413;-60
2023/08/13 00:44:07;;;;;;;4.00;1.35;;;21.60;60.80;;;;;;5025893;28;20054;-61
2023/08/13 00:46:34;;;;;;;2.65;1.30;;;21.60;60.90;;;;;;5025653;28;20409;-60
2023/08/13 00:49:02;;;;;;;1.70;1.13;;;21.60;60.90;;;;;;5025882;28;20525;-61
2023/08/13 00:51:30;;;;;;;1.77;1.02;;;21.60;61.00;;;;;;5024989;28;20493;-60
2023/08/13 00:53:58;;;;;;;2.53;1.40;;;21.60;61.10;;;;;;5023743;28;20485;-59
2023/08/13 00:56:25;;;;;;;6.35;1.70;;;21.60;61.50;;;;;;5024500;28;20433;-61
2023/08/13 00:58:53;;;;;;;4.05;1.60;;;21.60;61.40;;;;;;5025918;28;20067;-61
2023/08/13 01:01:21;;;;;;;2.22;1.40;;;21.60;61.50;;;;;;5027689;28;20057;-63
2023/08/13 01:03:48;;;;;;;4.13;1.25;;;21.60;61.70;;;;;;5053777;22;20049;-62
2023/08/13 01:06:22;;;;;;;4.05;1.98;;;21.50;61.60;;;;;;5041477;28;21959;-62
2023/08/13 01:08:57;;;;;;;2.65;1.25;;;21.50;62.70;;;;;;5040440;28;20514;-61
2023/08/13 01:11:30;;;;;;;7.20;1.67;;;21.50;62.00;;;;;;5042130;28;20064;-62
2023/08/13 01:14:08;;;;;;;1.98;1.13;;;21.50;62.20;;;;;;5042151;28;20076;-62
2023/08/13 01:16:41;;;;;;;3.00;1.55;;;21.60;62.40;;;;;;5042295;28;20061;-62
2023/08/13 01:19:10;;;;;;;11.43;1.93;;;21.60;63.10;;;;;;5040506;28;20053;-62
2023/08/13 01:21:37;;;;;;;3.85;1.70;;;21.60;62.30;;;;;;5040263;28;20047;-62
2023/08/13 01:24:07;;;;;;;4.68;1.80;;;21.50;62.20;;;;;;5041111;28;20447;-62
2023/08/13 01:26:41;;;;;;;2.33;1.30;;;21.50;62.30;;;;;;5039877;28;20745;-62
2023/08/13 01:29:11;;;;;;;;;;;21.50;62.40;;;;;;5041650;28;20053;-62
2023/08/13 01:31:40;;;;;;;3.45;1.58;;;21.60;62.30;;;;;;5040447;28;20265;-62
2023/08/13 01:34:08;;;;;;;4.15;1.42;;;21.60;62.30;;;;;;5041512;28;20056;-62
2023/08/13 01:36:36;;;;;;;2.38;1.05;;;21.60;62.30;;;;;;5041530;28;20060;-61
2023/08/13 01:39:05;;;;;;;1.45;1.20;;;21.60;62.30;;;;;;5037994;28;20045;-61
2023/08/13 01:41:45;;;;;;;2.85;1.60;;;21.60;62.30;;;;;;5041014;28;20408;-62
2023/08/13 01:44:12;;;;;;;2.97;1.45;;;21.60;62.30;;;;;;5042169;28;20048;-62
2023/08/13 01:46:40;;;;;;;7.32;1.52;;;21.60;62.20;;;;;;5040916;28;20063;-62
2023/08/13 01:49:07;;;;;;;1.77;1.15;;;21.60;62.10;;;;;;5040279;28;20056;-62
2023/08/13 01:51:34;;;;;;;1.20;1.10;;;21.60;62.20;;;;;;5040030;28;20056;-62
2023/08/13 01:54:02;;;;;;;2.25;1.20;;;21.50;62.20;;;;;;5039095;28;20059;-62
2023/08/13 01:56:29;;;;;;;3.13;1.50;;;21.60;62.40;;;;;;5041412;28;20060;-61
2023/08/13 01:58:57;;;;;;;2.30;1.52;;;21.50;62.40;;;;;;5038249;28;20076;-62
2023/08/13 02:01:25;;;;;;;3.53;1.40;;;21.50;62.50;;;;;;5041508;28;20692;-61
2023/08/13 02:03:52;;;;;;;2.65;1.38;;;21.60;62.50;;;;;;5048435;28;20071;-62
2023/08/13 02:06:19;;;;;;;2.85;1.55;;;21.60;62.50;;;;;;5060467;28;20079;-62
2023/08/13 02:08:46;;;;;;;4.78;1.60;;;21.50;62.40;;;;;;5054782;28;20048;-62
2023/08/13 02:11:14;;;;;;;2.45;1.50;;;21.50;62.30;;;;;;5056713;28;20052;-61
2023/08/13 02:13:41;;;;;;;2.08;1.20;;;21.50;62.20;;;;;;5059606;28;20063;-62
2023/08/13 02:16:09;;;;;;;2.47;1.50;;;21.50;62.10;;;;;;5060723;28;20373;-62
2023/08/13 02:18:37;;;;;;;2.75;1.33;;;21.50;62.00;;;;;;5059177;28;20052;-62
2023/08/13 02:21:04;;;;;;;2.25;1.10;;;21.50;62.00;;;;;;5060003;28;20048;-62
2023/08/13 02:23:31;;;;;;;2.17;1.20;;;21.50;62.00;;;;;;5057636;28;20056;-62
2023/08/13 02:25:58;;;;;;;4.28;1.63;;;21.50;62.00;;;;;;5062405;28;20056;-61
2023/08/13 02:28:26;;;;;;;5.40;1.50;;;21.50;62.00;;;;;;5060914;28;20492;-61
2023/08/13 02:30:53;;;;;;;3.38;1.52;;;21.50;62.00;;;;;;5058956;28;20058;-62
2023/08/13 02:33:22;;;;;;;5.25;1.10;;;21.50;62.00;;;;;;5056581;28;20048;-62
2023/08/13 02:35:49;;;;;;;2.25;1.15;;;21.50;62.10;;;;;;5059619;28;20556;-62
2023/08/13 02:38:16;;;;;;;5.90;1.30;;;21.50;62.10;;;;;;5059077;28;20048;-62
2023/08/13 02:40:44;;;;;;;5.63;1.40;;;21.50;62.10;;;;;;5059503;28;20052;-62
2023/08/13 02:43:11;;;;;;;1.92;1.00;;;21.40;61.90;;;;;;5057444;28;20492;-62
2023/08/13 02:45:39;;;;;;;3.80;1.40;;;21.40;61.90;;;;;;5059752;28;20055;-61
2023/08/13 02:48:07;;;;;;;2.50;1.40;;;21.40;61.80;;;;;;5059707;28;20049;-62
2023/08/13 02:50:35;;;;;;;3.50;1.55;;;21.40;61.80;;;;;;5054268;28;20040;-62
2023/08/13 02:53:03;;;;;;;4.25;1.58;;;21.40;61.70;;;;;;5059157;28;20055;-61
2023/08/13 02:55:30;;;;;;;4.75;1.40;;;21.40;61.80;;;;;;5059877;28;20052;-61
2023/08/13 02:57:58;;;;;;;4.30;1.77;;;21.40;61.60;;;;;;5058040;28;20045;-62
2023/08/13 03:00:25;;;;;;;2.88;1.55;;;21.40;61.50;;;;;;5057917;28;20731;-62
2023/08/13 03:02:52;;;;;;;5.45;2.13;;;21.40;61.50;;;;;;5060049;28;20048;-62
2023/08/13 03:05:19;;;;;;;3.58;1.52;;;21.30;61.50;;;;;;5059920;28;20056;-62
2023/08/13 03:07:48;;;;;;;2.72;1.50;;;21.30;61.50;;;;;;5058866;28;20052;-62
2023/08/13 03:10:15;;;;;;;7.05;1.88;;;21.30;61.50;;;;;;5058741;28;20052;-61
2023/08/13 03:12:42;;;;;;;3.95;1.42;;;21.30;61.40;;;;;;5057129;28;21620;-62
2023/08/13 03:15:10;;;;;;;3.28;1.60;;;21.30;61.30;;;;;;5060482;28;20059;-61
2023/08/13 03:17:37;;;;;;;2.80;1.65;;;21.20;61.30;;;;;;5059058;28;20064;-62
2023/08/13 03:20:05;;;;;;;2.22;1.50;;;21.20;61.30;;;;;;5051339;28;20069;-61
2023/08/13 03:22:33;;;;;;;2.88;1.42;;;21.20;61.20;;;;;;5058603;28;20052;-62
2023/08/13 03:25:01;;;;;;;7.97;2.00;;;21.20;61.20;;;;;;5059516;28;20049;-60
2023/08/13 03:27:29;;;;;;;5.45;1.95;;;21.20;61.00;;;;;;5055350;28;20063;-60
2023/08/13 03:29:56;;;;;;;7.53;1.63;;;21.20;60.80;;;;;;5055096;28;20480;-60
2023/08/13 03:32:23;;;;;;;4.22;1.52;;;21.10;60.70;;;;;;5057722;28;20052;-58
2023/08/13 03:34:50;;;;;;;2.90;1.42;;;21.10;60.70;;;;;;5050306;28;20490;-58
2023/08/13 03:37:18;;;;;;;3.88;1.60;;;21.10;60.80;;;;;;5056663;28;20492;-59
2023/08/13 03:39:45;;;;;;;5.38;1.80;;;21.00;60.80;;;;;;5058102;28;20059;-59
2023/08/13 03:42:13;;;;;;;4.13;1.80;;;21.00;60.80;;;;;;5058084;28;20513;-62
2023/08/13 03:44:42;;;;;;;5.78;1.90;;;21.00;61.50;;;;;;5056021;28;20507;-59
2023/08/13 03:47:09;;;;;;;4.47;1.95;;;21.00;60.90;;;;;;5057917;28;20052;-59
2023/08/13 03:49:36;;;;;;;2.75;1.50;;;21.00;60.90;;;;;;5051891;28;20059;-58
2023/08/13 03:52:04;;;;;;;2.78;1.42;;;21.00;61.00;;;;;;5058757;28;20496;-59
2023/08/13 03:54:31;;;;;;;2.60;1.40;;;20.90;61.00;;;;;;5055970;28;20522;-60
2023/08/13 03:56:59;;;;;;;6.15;2.00;;;20.90;61.00;;;;;;5058389;28;20064;-61
2023/08/13 03:59:27;;;;;;;5.35;2.05;;;20.90;60.80;;;;;;5055445;28;20063;-59
2023/08/13 04:01:57;;;;;;;4.22;2.20;;;20.90;60.80;;;;;;5057978;28;20056;-59
2023/08/13 04:04:24;;;;;;;2.45;1.45;;;20.90;60.70;;;;;;5056243;28;20048;-59
2023/08/13 04:06:52;;;;;;;5.07;1.83;;;20.90;60.70;;;;;;5057963;28;20064;-59
2023/08/13 04:09:19;;;;;;;4.35;1.98;;;20.80;60.60;;;;;;5057052;28;20846;-58
2023/08/13 04:11:46;;;;;;;5.43;2.20;;;20.80;60.60;;;;;;5057396;28;21012;-58
2023/08/13 04:14:13;;;;;;;5.07;1.75;;;20.80;60.60;;;;;;5058816;28;20055;-58
2023/08/13 04:16:42;;;;;;;3.03;1.80;;;20.80;60.70;;;;;;5053800;28;20166;-59
2023/08/13 04:19:09;;;;;;;2.45;1.58;;;20.80;60.90;;;;;;5055390;28;20500;-61
2023/08/13 04:21:36;;;;;;;5.30;2.03;;;20.80;61.00;;;;;;5058027;28;20056;-59
2023/08/13 04:24:04;;;;;;;4.38;1.45;;;20.70;61.10;;;;;;5059069;28;20045;-59
2023/08/13 04:26:31;;;;;;;10.05;2.28;;;20.80;61.10;;;;;;5056661;28;20071;-59
2023/08/13 04:28:59;;;;;;;3.40;1.75;;;20.80;61.10;;;;;;5056595;28;20083;-59
2023/08/13 04:31:26;;;;;;;5.38;2.55;;;20.70;61.10;;;;;;5058655;28;20633;-59
2023/08/13 04:33:54;;;;;;;12.98;2.50;;;20.80;61.20;;;;;;5061527;28;20044;-59
2023/08/13 04:36:22;;;;;;;5.20;1.73;;;20.70;61.10;;;;;;5062444;28;20052;-59
2023/08/13 04:38:49;;;;;;;5.75;2.10;;;20.70;61.10;;;;;;5059683;28;20500;-59
2023/08/13 04:41:16;;;;;;;5.10;2.10;;;20.70;61.10;;;;;;5061459;28;20049;-59
2023/08/13 04:43:43;;;;;;;3.63;1.70;;;20.70;61.10;;;;;;5061238;28;20527;-60
2023/08/13 04:46:11;;;;;;;5.90;2.00;;;20.70;61.10;;;;;;5062050;28;20052;-61
2023/08/13 04:48:42;;;;;;;3.40;1.80;;;20.70;61.10;;;;;;5056300;28;20052;-59
2023/08/13 04:51:10;;;;;;;2.22;1.42;;;20.70;61.30;;;;;;5059370;28;20483;-60
2023/08/13 04:53:38;;;;;;;3.95;1.60;;;20.70;61.40;;;;;;5059641;28;20048;-60
2023/08/13 04:56:06;;;;;;;2.60;1.58;;;20.70;61.50;;;;;;5059885;28;20052;-60
2023/08/13 04:58:33;;;;;;;4.05;1.67;;;20.70;61.50;;;;;;5056465;28;20514;-59
2023/08/13 05:01:00;;;;;;;2.80;1.60;;;20.60;61.40;;;;;;5062069;28;20487;-60
2023/08/13 05:03:28;;;;;;;5.63;1.52;;;20.70;61.50;;;;;;5061426;28;20049;-58
2023/08/13 05:05:55;;;;;;;3.95;1.98;;;20.60;61.40;;;;;;5060704;28;20048;-58
2023/08/13 05:08:24;;;;;;;5.35;2.65;;;20.60;61.50;;;;;;5060003;28;20068;-58
2023/08/13 05:10:51;;;;;;;8.88;2.00;;;20.70;61.60;;;;;;5060644;28;20063;-59
2023/08/13 05:13:18;;;;;;;3.63;1.80;;;20.70;61.60;;;;;;5059155;28;20472;-59
2023/08/13 05:15:46;;;;;;;3.25;1.90;;;20.70;61.70;;;;;;5062120;28;20396;-59
2023/08/13 05:18:13;;;;;;;3.90;2.00;;;20.70;61.70;;;;;;5060683;28;20536;-59
2023/08/13 05:20:40;;;;;;;3.17;1.80;;;20.70;61.80;;;;;;5060981;28;20055;-58
2023/08/13 05:23:07;;;;;;;3.78;1.83;;;20.70;61.80;;;;;;5060957;28;20056;-59
2023/08/13 05:25:38;;;;;;;12.90;6.85;;;20.70;61.80;;;;;;5060462;28;20526;-59
2023/08/13 05:28:07;;;;;;;4.50;2.78;;;20.70;61.80;;;;;;5059808;28;20936;-59
2023/08/13 05:30:35;;;;;;;7.22;4.18;;;20.70;61.70;;;;;;5058403;28;20404;-60
2023/08/13 05:33:03;;;;;;;7.15;2.53;;;20.70;61.70;;;;;;5060727;28;20071;-59
2023/08/13 05:35:30;;;;;;;4.28;1.88;;;20.70;61.90;;;;;;5061030;28;20495;-59
2023/08/13 05:37:58;;;;;;;4.20;1.60;;;20.70;62.00;;;;;;5059418;28;20060;-59
2023/08/13 05:40:25;;;;;;;3.10;1.55;;;20.70;62.10;;;;;;5058665;28;20052;-63
2023/08/13 05:42:54;;;;;;;2.15;1.35;;;20.70;62.10;;;;;;5056013;28;20063;-62
2023/08/13 05:45:21;;;;;;;8.80;1.95;;;20.70;62.20;;;;;;5061807;28;20059;-60
2023/08/13 05:47:49;;;;;;;2.78;1.60;;;20.70;62.30;;;;;;5058758;28;20064;-59
2023/08/13 05:50:16;;;;;;;5.03;1.80;;;20.70;62.40;;;;;;5055119;28;20500;-61
2023/08/13 05:52:43;;;;;;;4.78;1.77;;;20.70;62.40;;;;;;5060096;28;20063;-60
2023/08/13 05:55:10;;;;;;;5.30;2.22;;;20.80;62.30;;;;;;5060541;28;20052;-60
2023/08/13 05:57:38;;;;;;;5.53;1.70;;;20.80;62.30;;;;;;5057917;28;20061;-59
2023/08/13 06:00:10;;;;;;;3.80;1.90;;;20.80;62.40;;;;;;5060140;28;20080;-61
2023/08/13 06:02:38;;;;;;;1.88;1.50;;;20.80;62.60;;;;;;5053979;28;20515;-59
2023/08/13 06:05:06;;;;;;;2.67;1.60;;;20.80;62.80;;;;;;5057965;28;20053;-59
2023/08/13 06:07:34;;;;;;;3.88;1.70;;;20.80;63.00;;;;;;5053001;28;20091;-61
2023/08/13 06:10:01;;;;;;;2.95;1.27;;;20.80;63.20;;;;;;5059002;28;20048;-62
2023/08/13 06:12:29;;;;;;;4.15;1.80;;;20.90;63.50;;;;;;5058093;28;20432;-62
2023/08/13 06:14:58;;;;;;;6.85;2.22;;;20.90;63.70;;;;;;5052416;28;20048;-59
2023/08/13 06:17:26;;;;;;;4.03;1.95;;;20.90;63.70;;;;;;5059162;28;20055;-60
2023/08/13 06:19:54;;;;;;;4.40;1.70;;;20.90;63.70;;;;;;5058730;28;20400;-59
2023/08/13 06:22:21;;;;;;;3.08;1.60;;;21.00;63.80;;;;;;5059028;28;20057;-59
2023/08/13 06:24:49;;;;;;;3.35;2.03;;;21.00;63.90;;;;;;5056038;28;20048;-59
2023/08/13 06:27:16;;;;;;;5.07;1.63;;;21.00;63.90;;;;;;5056039;28;20063;-61
2023/08/13 06:29:43;;;;;;;5.22;1.90;;;21.10;64.00;;;;;;5057058;28;20060;-63
2023/08/13 06:32:11;;;;;;;3.63;2.00;;;21.10;64.00;;;;;;5058624;28;20382;-60
2023/08/13 06:34:39;;;;;;;4.47;1.63;;;21.10;64.00;;;;;;5055886;28;20048;-60
2023/08/13 06:37:07;;;;;;;6.68;1.80;;;21.20;64.10;;;;;;5060326;28;20052;-59
2023/08/13 06:39:34;;;;;;;6.65;2.00;;;21.20;64.10;;;;;;5059809;28;20063;-58
2023/08/13 06:42:01;;;;;;;4.28;1.65;;;21.20;64.10;;;;;;5058714;28;20056;-61
2023/08/13 06:44:28;;;;;;;4.32;1.80;;;21.30;64.20;;;;;;5056835;28;20518;-59
2023/08/13 06:46:56;;;;;;;4.05;1.80;;;21.30;64.20;;;;;;5057893;28;20064;-62
2023/08/13 06:49:23;;;;;;;7.13;2.17;;;21.30;64.20;;;;;;5058496;28;20059;-59
2023/08/13 06:51:52;;;;;;;4.57;1.35;;;21.40;64.40;;;;;;5053158;28;20064;-60
2023/08/13 06:54:19;;;;;;;2.70;1.60;;;21.40;64.50;;;;;;5056976;28;20059;-63
2023/08/13 06:56:46;;;;;;;4.88;2.08;;;21.50;64.50;;;;;;5056995;28;20503;-63
2023/08/13 06:59:14;;;;;;;5.70;1.90;;;21.50;64.50;;;;;;5056404;28;20063;-63
2023/08/13 07:01:41;;;;;;;2.85;1.65;;;21.60;64.60;;;;;;5058086;28;20056;-63
2023/08/13 07:04:08;;;;;;;4.05;1.70;;;21.60;64.50;;;;;;5054303;28;20071;-63
2023/08/13 07:06:35;;;;;;;4.15;1.70;;;21.60;64.50;;;;;;5057804;28;20056;-63
2023/08/13 07:09:05;;;;;;;4.72;1.77;;;21.70;64.70;;;;;;5054899;28;20059;-63
2023/08/13 07:11:32;;;;;;;3.72;1.67;;;21.70;64.60;;;;;;5058139;28;20056;-63
2023/08/13 07:14:03;;;;;;;4.72;1.88;;;21.80;64.50;;;;;;5056146;28;20052;-63
2023/08/13 07:16:30;;;;;;;7.32;2.00;;;21.80;64.30;;;;;;5059933;28;20049;-63
2023/08/13 07:18:57;;;;;;;9.35;2.25;;;21.90;64.20;;;;;;5059465;28;20048;-63
2023/08/13 07:21:25;;;;;;;6.13;1.90;;;21.90;64.20;;;;;;5059725;28;20072;-63
2023/08/13 07:23:52;;;;;;;4.75;2.10;;;21.90;64.10;;;;;;5055547;28;20397;-63
2023/08/13 07:26:21;;;;;;;4.53;2.40;;;22.00;64.10;;;;;;5057978;28;20056;-63
2023/08/13 07:28:48;;;;;;;6.78;2.25;;;22.00;64.00;;;;;;5056850;28;20056;-63
2023/08/13 07:31:19;;;;;;;6.88;2.28;;;22.10;64.10;;;;;;5057130;28;20067;-62
2023/08/13 07:33:47;;;;;;;6.80;2.38;;;22.10;64.10;;;;;;5059103;28;20404;-63
2023/08/13 07:36:14;;;;;;;6.53;2.35;;;22.10;63.90;;;;;;5060098;28;20503;-62
2023/08/13 07:38:42;;;;;;;6.15;2.28;;;22.20;63.70;;;;;;5058651;28;20063;-63
2023/08/13 07:41:09;;;;;;;4.72;2.08;;;22.20;63.50;;;;;;5057845;28;20519;-63
2023/08/13 07:43:38;;;;;;;6.35;2.47;;;22.20;63.40;;;;;;5056896;28;20055;-63
2023/08/13 07:46:05;;;;;;;10.13;2.90;;;22.30;63.40;;;;;;5057216;28;20049;-63
2023/08/13 07:48:32;;;;;;;5.95;2.35;;;22.30;63.10;;;;;;5060063;28;20059;-63
2023/08/13 07:51:00;;;;;;;9.18;2.38;;;22.30;63.00;;;;;;5058158;28;20061;-63
2023/08/13 07:53:29;;;;;;;6.00;2.17;;;22.40;63.10;;;;;;5059079;28;20076;-62
2023/08/13 07:55:57;;;;;;;7.20;2.13;;;22.40;63.10;;;;;;5053864;28;20736;-62
2023/08/13 07:58:24;;;;;;;14.68;3.15;;;22.50;62.80;;;;;;5053747;28;20064;-62
2023/08/13 08:00:53;;;;;;;10.52;2.42;;;22.50;62.80;;;;;;5057576;28;20514;-63
2023/08/13 08:03:20;;;;;;;6.88;2.05;;;22.60;62.60;;;;;;5056378;28;20057;-63
2023/08/13 08:05:49;;;;;;;5.25;2.03;;;22.60;62.40;;;;;;5060878;28;20048;-63
2023/08/13 08:08:16;;;;;;;4.50;2.08;;;22.70;62.20;;;;;;5060462;28;20408;-63
2023/08/13 08:10:44;;;;;;;4.10;1.77;;;22.70;61.70;;;;;;5058123;28;20492;-63
2023/08/13 08:13:11;;;;;;;8.63;2.25;;;22.80;61.60;;;;;;5058520;28;20056;-63
2023/08/13 08:15:38;;;;;;;5.95;1.98;;;22.80;61.20;;;;;;5060755;28;20059;-63
2023/08/13 08:18:07;;;;;;;5.88;1.92;;;22.90;61.10;;;;;;5059961;28;20059;-63
2023/08/13 08:20:34;;;;;;;5.43;2.15;;;22.90;60.70;;;;;;5059201;28;20048;-63
2023/08/13 08:23:02;;;;;;;15.05;2.30;;;23.00;60.60;;;;;;5060249;28;20514;-63
2023/08/13 08:25:30;;;;;;;6.10;1.92;;;23.00;60.30;;;;;;5058470;28;20057;-63
2023/08/13 08:27:57;;;;;;;9.40;2.33;;;23.00;60.20;;;;;;5059080;28;20422;-63
2023/08/13 08:30:24;;;;;;;7.55;1.90;;;23.10;60.10;;;;;;5053958;28;20056;-63
2023/08/13 08:32:52;;;;;;;5.53;1.90;;;23.10;59.90;;;;;;5060249;28;20056;-63
2023/08/13 08:35:20;;;;;;;4.55;1.92;;;23.10;59.60;;;;;;5058427;28;20152;-63
2023/08/13 08:37:48;;;;;;;5.18;1.80;;;23.20;59.50;;;;;;5057168;28;20076;-63
2023/08/13 08:40:15;;;;;;;5.43;1.60;;;23.20;59.50;;;;;;5061180;28;20048;-63
2023/08/13 08:42:43;;;;;;;11.07;1.95;;;23.20;59.40;;;;;;5057175;28;20056;-64
2023/08/13 08:45:11;;;;;;;7.10;2.28;;;23.30;59.30;;;;;;5059437;28;20056;-64
2023/08/13 08:47:40;;;;;;;4.50;1.80;;;23.30;59.40;;;;;;5061645;28;20045;-63
2023/08/13 08:50:11;;;;;;;6.20;2.20;;;23.30;59.20;;;;;;5059885;28;20059;-64
2023/08/13 08:52:41;;;;;;;6.60;2.22;;;23.40;59.10;;;;;;5060064;28;20567;-64
2023/08/13 08:55:10;;;;;;;6.63;1.90;;;23.50;59.10;;;;;;5058958;28;20044;-64
2023/08/13 08:57:38;;;;;;;7.35;2.17;;;23.50;58.90;;;;;;5058495;28;20052;-64
2023/08/13 09:00:06;;;;;;;5.18;2.10;;;23.50;58.50;;;;;;5061132;28;20404;-63
2023/08/13 09:02:33;;;;;;;11.15;3.88;;;23.50;58.40;;;;;;5059439;28;20266;-63
2023/08/13 09:05:02;;;;;;;11.32;2.55;;;23.60;58.10;;;;;;5059607;28;20060;-64
2023/08/13 09:07:31;;;;;;;8.30;2.33;;;23.60;58.00;;;;;;5059455;28;20056;-64
2023/08/13 09:09:59;;;;;;;6.28;2.15;;;23.70;57.90;;;;;;5062609;28;20416;-64
2023/08/13 09:12:27;;;;;;;5.45;1.85;;;23.70;57.60;;;;;;5058326;28;20495;-64
2023/08/13 09:14:55;;;;;;;6.78;1.98;;;23.70;57.40;;;;;;5057945;28;20080;-61
2023/08/13 09:17:24;;;;;;;5.65;1.77;;;23.70;57.20;;;;;;5060322;28;20063;-61
2023/08/13 09:19:52;;;;;;;6.65;2.00;;;23.70;57.10;;;;;;5060267;28;20053;-60
2023/08/13 09:22:19;;;;;;;7.93;2.25;;;23.80;56.80;;;;;;5061950;28;20052;-62
2023/08/13 09:24:48;;;;;;;11.95;2.72;;;23.80;56.70;;;;;;5060489;28;21558;-59
2023/08/13 09:27:18;;;;;;;4.35;1.55;;;23.80;56.20;;;;;;5057757;28;20049;-60
2023/08/13 09:29:52;;;;;;;9.25;2.05;;;23.80;56.10;;;;;;5058249;28;20056;-63
2023/08/13 09:32:20;;;;;;;4.75;1.50;;;23.80;56.10;;;;;;5058092;28;20060;-60
2023/08/13 09:34:47;;;;;;;10.52;1.98;;;23.80;56.00;;;;;;5061387;28;20060;-61
2023/08/13 09:37:16;;;;;;;6.20;1.98;;;23.90;55.80;;;;;;5060271;28;20550;-61
2023/08/13 09:39:43;;;;;;;6.53;2.30;;;23.90;55.80;;;;;;5057187;28;20056;-61
2023/08/13 09:42:11;;;;;;;5.03;2.20;;;23.90;55.80;;;;;;5055417;28;20048;-60
2023/08/13 09:44:40;;;;;;;5.57;2.17;;;23.90;55.70;;;;;;5061316;28;20061;-59
2023/08/13 09:47:10;;;;;;;8.07;1.98;;;24.00;55.70;;;;;;5057987;28;20055;-61
2023/08/13 09:49:38;;;;;;;6.88;2.15;;;24.00;55.60;;;;;;5059184;28;20052;-61
2023/08/13 09:52:08;;;;;;;5.95;1.92;;;24.00;55.60;;;;;;5061434;28;20389;-61
2023/08/13 09:54:42;;;;;;;6.05;1.95;;;24.00;55.60;;;;;;5061040;28;20056;-60
2023/08/13 09:57:10;;;;;;;;;;;24.10;55.50;;;;;;5057485;28;20041;-61
2023/08/13 09:59:38;;;;;;;6.72;1.80;;;24.10;55.70;;;;;;5055046;28;19928;-61
2023/08/13 10:02:08;;;;;;;6.78;1.80;;;24.10;55.50;;;;;;5050856;28;20052;-62
2023/08/13 10:04:37;;;;;;;6.90;1.88;;;24.10;55.60;;;;;;5056080;28;20057;-61
2023/08/13 10:07:05;;;;;;;7.38;1.50;;;24.20;55.60;;;;;;5056676;28;20044;-60
2023/08/13 10:09:33;;;;;;;4.82;2.05;;;24.20;55.60;;;;;;5059762;28;20049;-61
2023/08/13 10:12:01;;;;;;;9.27;2.20;;;24.20;55.40;;;;;;5056950;28;20044;-62
2023/08/13 10:14:29;;;;;;;5.93;2.33;;;24.30;55.50;;;;;;5051021;28;20060;-61
2023/08/13 10:16:56;;;;;;;5.00;1.67;;;24.30;55.50;;;;;;5056114;28;20063;-61
2023/08/13 10:19:30;;;;;;;16.40;2.83;;;24.30;55.60;;;;;;5055943;28;20053;-62
2023/08/13 10:21:58;;;;;;;8.00;2.20;;;24.30;55.30;;;;;;5056427;28;20114;-62
2023/08/13 10:24:29;;;;;;;5.68;2.38;;;24.40;55.30;;;;;;5059273;28;20052;-59
2023/08/13 10:26:59;;;;;;;5.32;1.92;;;24.40;55.20;;;;;;5057372;28;20136;-60
2023/08/13 10:29:36;;;;;;;6.05;1.95;;;24.40;55.20;;;;;;5058417;28;20060;-61
2023/08/13 10:32:12;;;;;;;5.40;1.92;;;24.50;55.00;;;;;;5059015;28;20053;-59
2023/08/13 10:34:42;;;;;;;5.10;2.33;;;24.50;55.10;;;;;;5053548;28;20055;-59
2023/08/13 10:37:15;;;;;;;7.22;2.30;;;24.50;55.30;;;;;;5058183;28;20503;-59
2023/08/13 10:39:43;;;;;;;6.25;1.98;;;24.50;54.90;;;;;;5058865;28;20052;-59
2023/08/13 10:42:49;;;;;;;5.88;1.90;;;24.60;54.90;;;;;;5054020;28;20056;-62
2023/08/13 10:45:18;;;;;;;8.32;2.22;;;24.60;54.90;;;;;;5060024;28;20424;-59
2023/08/13 10:47:46;;;;;;;6.55;2.22;;;24.60;55.00;;;;;;5056189;28;20068;-59
2023/08/13 10:50:21;;;;;;;5.75;2.40;;;24.70;55.10;;;;;;5057898;28;20075;-59
2023/08/13 10:52:50;;;;;;;5.47;2.08;;;24.60;55.10;;;;;;5058079;28;20053;-60
2023/08/13 10:55:19;;;;;;;7.68;2.33;;;24.70;55.80;;;;;;5060651;28;20044;-60
2023/08/13 10:57:51;;;;;;;5.93;2.40;;;24.70;55.20;;;;;;5055128;28;20056;-59
2023/08/13 11:00:19;;;;;;;6.53;2.00;;;24.70;55.00;;;;;;5057414;28;20515;-60
2023/08/13 11:02:50;;;;;;;3.80;1.70;;;24.70;55.00;;;;;;5060064;28;20059;-58
2023/08/13 11:05:19;;;;;;;8.65;2.28;;;24.70;55.00;;;;;;5055690;28;20056;-58
2023/08/13 11:07:47;;;;;;;4.70;2.03;;;24.80;55.00;;;;;;5059740;28;20055;-60
2023/08/13 11:10:17;;;;;;;6.13;2.38;;;24.80;55.10;;;;;;5058918;28;20052;-59
2023/08/13 11:12:46;;;;;;;7.47;2.40;;;24.80;55.00;;;;;;5056431;28;20056;-58
2023/08/13 11:15:14;;;;;;;8.95;3.00;;;24.80;54.60;;;;;;5057135;28;20542;-58
2023/08/13 11:17:46;;;;;;;6.18;2.67;;;24.80;54.60;;;;;;5060112;28;20904;-59
2023/08/13 11:20:16;;;;;;;7.32;2.55;;;24.80;54.60;;;;;;5056767;28;20052;-58
2023/08/13 11:22:45;;;;;;;5.95;2.15;;;24.90;54.80;;;;;;5056536;28;20049;-59
2023/08/13 11:25:13;;;;;;;6.40;2.03;;;24.90;54.60;;;;;;5058434;28;20048;-59
2023/08/13 11:27:41;;;;;;;5.93;2.53;;;24.90;54.70;;;;;;5057089;28;20056;-60
2023/08/13 11:30:09;;;;;;;4.13;2.17;;;25.00;54.90;;;;;;5057836;28;20052;-59
2023/08/13 11:32:37;;;;;;;11.57;2.92;;;25.00;54.70;;;;;;5057678;28;20653;-59
2023/08/13 11:35:06;;;;;;;8.20;2.35;;;25.00;54.50;;;;;;5055862;28;20416;-60
2023/08/13 11:37:34;;;;;;;9.10;2.72;;;25.00;54.50;;;;;;5049606;28;20052;-60
2023/08/13 11:40:05;;;;;;;4.75;2.63;;;25.10;54.60;;;;;;5058802;28;20056;-60
2023/08/13 11:42:32;;;;;;;7.22;2.20;;;25.10;54.60;;;;;;5060154;28;20404;-59
2023/08/13 11:45:03;;;;;;;7.35;2.13;;;25.10;54.70;;;;;;5063353;28;20052;-61
2023/08/13 11:47:30;;;;;;;13.07;2.53;;;25.20;54.70;;;;;;5063449;28;20411;-61
2023/08/13 11:49:59;;;;;;;5.72;2.03;;;25.20;54.60;;;;;;5062548;28;20049;-60
2023/08/13 11:52:26;;;;;;;5.38;2.30;;;25.20;54.50;;;;;;5057748;28;20056;-60
2023/08/13 11:54:53;;;;;;;4.97;2.22;;;25.20;54.50;;;;;;5059125;28;20059;-61
2023/08/13 11:57:22;;;;;;;4.95;2.22;;;25.20;54.50;;;;;;5058104;28;20075;-61
2023/08/13 11:59:50;;;;;;;7.18;2.20;;;25.30;54.50;;;;;;5062118;28;20067;-61
2023/08/13 12:02:17;;;;;;;5.60;1.80;;;25.30;54.20;;;;;;5060274;28;20052;-61
2023/08/13 12:04:48;;;;;;;14.00;2.30;;;25.30;54.00;;;;;;5062572;28;20056;-59
2023/08/13 12:07:16;;;;;;;4.28;2.15;;;25.40;53.50;;;;;;5060420;28;20056;-60
2023/08/13 12:09:43;;;;;;;4.97;2.10;;;25.40;53.20;;;;;;5060879;28;20064;-60
2023/08/13 12:12:11;;;;;;;3.85;1.85;;;25.40;53.10;;;;;;5060850;28;20055;-60
2023/08/13 12:14:46;;;;;;;5.03;2.10;;;25.50;53.30;;;;;;5058183;28;20088;-60
2023/08/13 12:17:13;;;;;;;5.47;1.88;;;25.50;53.30;;;;;;5060694;28;20091;-59
2023/08/13 12:19:40;;;;;;;4.15;1.90;;;25.50;53.30;;;;;;5057920;28;20059;-61
2023/08/13 12:22:08;;;;;;;4.68;1.80;;;25.60;53.30;;;;;;5062116;28;20491;-60
2023/08/13 12:24:35;;;;;;;5.53;2.30;;;25.60;53.20;;;;;;5056009;28;20052;-59
2023/08/13 12:27:03;;;;;;;5.25;1.83;;;25.60;53.00;;;;;;5055812;28;20044;-59
2023/08/13 12:29:30;;;;;;;5.45;1.70;;;25.60;52.60;;;;;;5058849;28;20052;-60
2023/08/13 12:31:58;;;;;;;3.60;1.83;;;25.70;52.30;;;;;;5059619;28;20052;-60
2023/08/13 12:34:26;;;;;;;6.82;2.20;;;25.70;52.20;;;;;;5062564;28;20060;-59
2023/08/13 12:36:53;;;;;;;3.97;1.80;;;25.70;52.40;;;;;;5058726;28;20060;-59
2023/08/13 12:39:20;;;;;;;5.72;2.00;;;25.80;52.50;;;;;;5061638;28;20071;-60
2023/08/13 12:41:47;;;;;;;5.00;1.55;;;25.80;52.70;;;;;;5061352;28;20126;-59
2023/08/13 12:44:15;;;;;;;3.08;1.90;;;25.80;52.40;;;;;;5062563;28;20056;-57
2023/08/13 12:46:42;;;;;;;6.45;3.75;;;25.80;52.80;;;;;;5060367;28;20044;-60
2023/08/13 12:49:10;;;;;;;8.35;2.20;;;25.90;52.40;;;;;;5060862;28;20055;-60
2023/08/13 12:51:38;;;;;;;4.32;1.90;;;25.90;52.50;;;;;;5059054;28;20053;-58
2023/08/13 12:54:05;;;;;;;5.32;1.90;;;26.00;52.60;;;;;;5060440;28;20067;-57